Zim Vancouver — A8LK5 — position and weather

sailwx.info

Track history (hours):
 
Tides and Currents Weather Stations Pressure Air Temp Water Temp Dewpoint Dewpoint Depression Visibility Wind Speed Wind Dir Waves Ship Positions

Zim Vancouver

Last reported at 2015-Jan-28 00:34 UTC. Time now 2015-Jan-28 01:27 UTC.
Position N 44°17' E 035°12'.

Length 260 m; draft 9.3 m.

Type: Ship. MMSI: 636013214.

Date/timePositionNaut miles runAvg speedWind from/ knotsBaromVisibWave heightAir tempDewpointWater temp
2015-Jan-28 00:34N 44°17' E 035°12'9918.8
2015-Jan-27 19:17N 44°29' E 037°30'1419.7
2015-Jan-27 18:33N 44°36' E 037°47'7 7.1
2015-Jan-27 17:31N 44°44' E 037°47'0 0.0
2015-Jan-27 16:31N 44°44' E 037°47'0 0.0
2015-Jan-27 15:31N 44°44' E 037°47'0 0.0
2015-Jan-27 14:31N 44°44' E 037°47'0 0.0
2015-Jan-27 13:31N 44°44' E 037°47'0 0.0
2015-Jan-27 12:31N 44°44' E 037°47'0 0.0
2015-Jan-27 11:31N 44°44' E 037°47'0 0.0
2015-Jan-27 10:31N 44°44' E 037°47'0 0.0
2015-Jan-27 09:31N 44°44' E 037°47'0 0.0
2015-Jan-27 08:31N 44°44' E 037°47'0 0.0
2015-Jan-27 07:31N 44°44' E 037°47'0 0.0
2015-Jan-27 06:31N 44°44' E 037°47'0 0.0
2015-Jan-27 05:31N 44°44' E 037°47'0 0.0
2015-Jan-27 04:31N 44°44' E 037°47'0 0.0
2015-Jan-27 03:31N 44°44' E 037°47'0 0.0
2015-Jan-27 02:31N 44°44' E 037°47'0 0.0
2015-Jan-27 01:31N 44°44' E 037°47'0 0.0
2015-Jan-27 00:31N 44°44' E 037°47'0 0.0
2015-Jan-26 23:31N 44°44' E 037°47'0 0.0
2015-Jan-26 22:31N 44°44' E 037°47'0 0.0
2015-Jan-26 21:31N 44°44' E 037°47'0 0.0
2015-Jan-26 20:31N 44°44' E 037°47'0 0.0
2015-Jan-26 19:31N 44°44' E 037°47'0 0.0
2015-Jan-26 18:31N 44°44' E 037°47'0 0.0
2015-Jan-26 17:31N 44°44' E 037°47'0 0.0
2015-Jan-26 16:31N 44°44' E 037°47'0 0.0
2015-Jan-26 15:31N 44°44' E 037°47'0 0.0
2015-Jan-26 14:31N 44°44' E 037°47'0 0.0
2015-Jan-26 13:31N 44°44' E 037°47'0 0.0
2015-Jan-26 12:31N 44°44' E 037°47'0 0.0
2015-Jan-26 11:31N 44°44' E 037°47'0 0.0
2015-Jan-26 10:31N 44°44' E 037°47'0 0.0
2015-Jan-26 09:31N 44°44' E 037°47'0 0.0
2015-Jan-26 08:31N 44°44' E 037°47'0 0.0
2015-Jan-26 07:31N 44°44' E 037°47'0 0.0
2015-Jan-26 06:31N 44°44' E 037°47'0 0.0
2015-Jan-26 05:31N 44°44' E 037°47'0 0.0
2015-Jan-26 04:31N 44°44' E 037°47'1 0.9
2015-Jan-26 03:34N 44°43' E 037°48'7 7.3
2015-Jan-26 02:33N 44°36' E 037°51'9 8.7
2015-Jan-26 01:33N 44°30' E 037°43'1211.9
2015-Jan-26 00:33N 44°24' E 037°29'1312.4
2015-Jan-25 23:33N 44°18' E 037°13'3912.4
2015-Jan-25 20:24N 44°01' E 036°24'1012.4
2015-Jan-25 19:33N 43°56' E 036°12'1412.2
2015-Jan-25 18:23N 43°49' E 035°54'1212.4
2015-Jan-25 17:24N 43°43' E 035°39'1111.6
2015-Jan-25 16:26N 43°39' E 035°25'1112.5
2015-Jan-25 15:34N 43°34' E 035°12'1212.3
2015-Jan-25 14:33N 43°28' E 034°57'2 0.8
2015-Jan-25 12:22N 43°27' E 034°55'910.3
2015-Jan-25 11:30N 43°23' E 034°44'1212.0
2015-Jan-25 10:30N 43°18' E 034°29'1212.0
2015-Jan-25 09:30N 43°11' E 034°15'23213.3
2015-Jan-24 16:04N 41°26' E 029°35'1019.1
2015-Jan-24 15:33N 41°21' E 029°24'132 3.9
2015-Jan-23 05:25N 40°26' E 026°46'3912.5
2015-Jan-23 02:20N 40°00' E 026°08'1012.6
2015-Jan-23 01:33N 39°56' E 025°57'13118.7
2015-Jan-22 18:33N 37°45' E 025°48'4318.4
2015-Jan-22 16:12N 37°11' E 026°21'1319.1
2015-Jan-22 15:31N 37°02' E 026°34'2718.8
2015-Jan-22 14:06N 36°38' E 026°47'1519.4
2015-Jan-22 13:18N 36°24' E 026°56'33919.0
2015-Jan-21 19:28N 33°36' E 032°55'1718.8
2015-Jan-21 18:33N 33°28' E 033°14'1818.2
2015-Jan-21 17:34N 33°20' E 033°33'1818.2
2015-Jan-21 16:33N 33°11' E 033°53'1818.2
2015-Jan-21 15:33N 33°04' E 034°12'1818.5
2015-Jan-21 14:33N 32°58' E 034°33'1818.4
2015-Jan-21 13:33N 32°54' E 034°55'9 0.4
2015-Jan-20 17:26N 32°55' E 034°44'1213.0
2015-Jan-20 16:31N 32°57' E 034°30'1813.0
2015-Jan-20 15:09N 32°48' E 034°12'812.8
2015-Jan-20 14:31N 32°45' E 034°03'4514.2
2015-Jan-20 11:22N 32°16' E 033°23'  
Track history (hours):
 
Tides and Currents Weather Stations Pressure Air Temp Water Temp Dewpoint Dewpoint Depression Visibility Wind Speed Wind Dir Waves Ship Positions

Zim Vancouver

Last reported at 2015-Jan-28 00:34 UTC. Time now 2015-Jan-28 01:27 UTC.
Position N 44°17' E 035°12'.

Length 260 m; draft 9.3 m.

Type: Ship. MMSI: 636013214.

Date/timePositionNaut miles runAvg speedWind from/ knotsBaromVisibWave heightAir tempDewpointWater temp
2015-Jan-28 00:34N 44°17' E 035°12'9918.8
2015-Jan-27 19:17N 44°29' E 037°30'1419.7
2015-Jan-27 18:33N 44°36' E 037°47'7 7.1
2015-Jan-27 17:31N 44°44' E 037°47'0 0.0
2015-Jan-27 16:31N 44°44' E 037°47'0 0.0
2015-Jan-27 15:31N 44°44' E 037°47'0 0.0
2015-Jan-27 14:31N 44°44' E 037°47'0 0.0
2015-Jan-27 13:31N 44°44' E 037°47'0 0.0
2015-Jan-27 12:31N 44°44' E 037°47'0 0.0
2015-Jan-27 11:31N 44°44' E 037°47'0 0.0
2015-Jan-27 10:31N 44°44' E 037°47'0 0.0
2015-Jan-27 09:31N 44°44' E 037°47'0 0.0
2015-Jan-27 08:31N 44°44' E 037°47'0 0.0
2015-Jan-27 07:31N 44°44' E 037°47'0 0.0
2015-Jan-27 06:31N 44°44' E 037°47'0 0.0
2015-Jan-27 05:31N 44°44' E 037°47'0 0.0
2015-Jan-27 04:31N 44°44' E 037°47'0 0.0
2015-Jan-27 03:31N 44°44' E 037°47'0 0.0
2015-Jan-27 02:31N 44°44' E 037°47'0 0.0
2015-Jan-27 01:31N 44°44' E 037°47'0 0.0
2015-Jan-27 00:31N 44°44' E 037°47'0 0.0
2015-Jan-26 23:31N 44°44' E 037°47'0 0.0
2015-Jan-26 22:31N 44°44' E 037°47'0 0.0
2015-Jan-26 21:31N 44°44' E 037°47'0 0.0
2015-Jan-26 20:31N 44°44' E 037°47'0 0.0
2015-Jan-26 19:31N 44°44' E 037°47'0 0.0
2015-Jan-26 18:31N 44°44' E 037°47'0 0.0
2015-Jan-26 17:31N 44°44' E 037°47'0 0.0
2015-Jan-26 16:31N 44°44' E 037°47'0 0.0
2015-Jan-26 15:31N 44°44' E 037°47'0 0.0
2015-Jan-26 14:31N 44°44' E 037°47'0 0.0
2015-Jan-26 13:31N 44°44' E 037°47'0 0.0
2015-Jan-26 12:31N 44°44' E 037°47'0 0.0
2015-Jan-26 11:31N 44°44' E 037°47'0 0.0
2015-Jan-26 10:31N 44°44' E 037°47'0 0.0
2015-Jan-26 09:31N 44°44' E 037°47'0 0.0
2015-Jan-26 08:31N 44°44' E 037°47'0 0.0
2015-Jan-26 07:31N 44°44' E 037°47'0 0.0
2015-Jan-26 06:31N 44°44' E 037°47'0 0.0
2015-Jan-26 05:31N 44°44' E 037°47'0 0.0
2015-Jan-26 04:31N 44°44' E 037°47'1 0.9
2015-Jan-26 03:34N 44°43' E 037°48'7 7.3
2015-Jan-26 02:33N 44°36' E 037°51'9 8.7
2015-Jan-26 01:33N 44°30' E 037°43'1211.9
2015-Jan-26 00:33N 44°24' E 037°29'1312.4
2015-Jan-25 23:33N 44°18' E 037°13'3912.4
2015-Jan-25 20:24N 44°01' E 036°24'1012.4
2015-Jan-25 19:33N 43°56' E 036°12'1412.2
2015-Jan-25 18:23N 43°49' E 035°54'1212.4
2015-Jan-25 17:24N 43°43' E 035°39'1111.6
2015-Jan-25 16:26N 43°39' E 035°25'1112.5
2015-Jan-25 15:34N 43°34' E 035°12'1212.3
2015-Jan-25 14:33N 43°28' E 034°57'2 0.8
2015-Jan-25 12:22N 43°27' E 034°55'910.3
2015-Jan-25 11:30N 43°23' E 034°44'1212.0
2015-Jan-25 10:30N 43°18' E 034°29'1212.0
2015-Jan-25 09:30N 43°11' E 034°15'23213.3
2015-Jan-24 16:04N 41°26' E 029°35'1019.1
2015-Jan-24 15:33N 41°21' E 029°24'132 3.9
2015-Jan-23 05:25N 40°26' E 026°46'3912.5
2015-Jan-23 02:20N 40°00' E 026°08'1012.6
2015-Jan-23 01:33N 39°56' E 025°57'13118.7
2015-Jan-22 18:33N 37°45' E 025°48'4318.4
2015-Jan-22 16:12N 37°11' E 026°21'1319.1
2015-Jan-22 15:31N 37°02' E 026°34'2718.8
2015-Jan-22 14:06N 36°38' E 026°47'1519.4
2015-Jan-22 13:18N 36°24' E 026°56'33919.0
2015-Jan-21 19:28N 33°36' E 032°55'1718.8
2015-Jan-21 18:33N 33°28' E 033°14'1818.2
2015-Jan-21 17:34N 33°20' E 033°33'1818.2
2015-Jan-21 16:33N 33°11' E 033°53'1818.2
2015-Jan-21 15:33N 33°04' E 034°12'1818.5
2015-Jan-21 14:33N 32°58' E 034°33'1818.4
2015-Jan-21 13:33N 32°54' E 034°55'9 0.4
2015-Jan-20 17:26N 32°55' E 034°44'1213.0
2015-Jan-20 16:31N 32°57' E 034°30'1813.0
2015-Jan-20 15:09N 32°48' E 034°12'812.8
2015-Jan-20 14:31N 32°45' E 034°03'4514.2
2015-Jan-20 11:22N 32°16' E 033°23'  

Dump ship's entire track history